sensor_id;sensor_type;location;lat;lon;timestamp;P1;durP1;ratioP1;P2;durP2;ratioP2
13461;SDS011;6803;45.264;5.468;2023-04-07T00:01:49;1.33;;;1.23;;
13461;SDS011;6803;45.264;5.468;2023-04-07T00:04:20;3.50;;;1.87;;
13461;SDS011;6803;45.264;5.468;2023-04-07T00:06:51;2.20;;;2.00;;
13461;SDS011;6803;45.264;5.468;2023-04-07T00:09:23;2.17;;;1.83;;
13461;SDS011;6803;45.264;5.468;2023-04-07T00:11:54;2.20;;;2.00;;
13461;SDS011;6803;45.264;5.468;2023-04-07T00:14:25;3.13;;;2.20;;
13461;SDS011;6803;45.264;5.468;2023-04-07T00:16:56;2.17;;;1.90;;
13461;SDS011;6803;45.264;5.468;2023-04-07T00:19:27;2.27;;;1.80;;
13461;SDS011;6803;45.264;5.468;2023-04-07T00:21:58;3.20;;;2.00;;
13461;SDS011;6803;45.264;5.468;2023-04-07T00:24:29;4.37;;;2.10;;
13461;SDS011;6803;45.264;5.468;2023-04-07T00:27:01;4.13;;;1.87;;
13461;SDS011;6803;45.264;5.468;2023-04-07T00:29:33;2.40;;;1.72;;
13461;SDS011;6803;45.264;5.468;2023-04-07T00:32:05;4.13;;;1.90;;
13461;SDS011;6803;45.264;5.468;2023-04-07T00:34:36;2.80;;;2.00;;
13461;SDS011;6803;45.264;5.468;2023-04-07T00:37:08;3.23;;;1.90;;
13461;SDS011;6803;45.264;5.468;2023-04-07T00:39:39;2.93;;;1.80;;
13461;SDS011;6803;45.264;5.468;2023-04-07T00:42:11;3.10;;;2.10;;
13461;SDS011;6803;45.264;5.468;2023-04-07T00:44:42;2.77;;;1.80;;
13461;SDS011;6803;45.264;5.468;2023-04-07T00:47:13;6.17;;;2.03;;
13461;SDS011;6803;45.264;5.468;2023-04-07T00:49:45;2.20;;;1.83;;
13461;SDS011;6803;45.264;5.468;2023-04-07T00:52:16;1.97;;;1.73;;
13461;SDS011;6803;45.264;5.468;2023-04-07T00:54:49;4.00;;;1.90;;
13461;SDS011;6803;45.264;5.468;2023-04-07T00:57:22;3.93;;;1.80;;
13461;SDS011;6803;45.264;5.468;2023-04-07T00:59:53;2.23;;;1.80;;
13461;SDS011;6803;45.264;5.468;2023-04-07T01:02:27;2.10;;;1.83;;
13461;SDS011;6803;45.264;5.468;2023-04-07T01:07:58;3.73;;;1.67;;
13461;SDS011;6803;45.264;5.468;2023-04-07T01:10:27;5.40;;;3.70;;
13461;SDS011;6803;45.264;5.468;2023-04-07T01:13:04;1.93;;;1.60;;
13461;SDS011;6803;45.264;5.468;2023-04-07T01:15:36;2.27;;;1.70;;
13461;SDS011;6803;45.264;5.468;2023-04-07T01:18:11;2.40;;;1.60;;
13461;SDS011;6803;45.264;5.468;2023-04-07T01:20:43;3.20;;;2.00;;
13461;SDS011;6803;45.264;5.468;2023-04-07T01:23:25;2.33;;;1.60;;
13461;SDS011;6803;45.264;5.468;2023-04-07T01:26:01;3.37;;;1.77;;
13461;SDS011;6803;45.264;5.468;2023-04-07T01:28:56;3.13;;;1.70;;
13461;SDS011;6803;45.264;5.468;2023-04-07T01:31:40;1.70;;;1.60;;
13461;SDS011;6803;45.264;5.468;2023-04-07T01:34:12;2.30;;;1.80;;
13461;SDS011;6803;45.264;5.468;2023-04-07T01:36:45;1.73;;;1.63;;
13461;SDS011;6803;45.264;5.468;2023-04-07T01:39:18;2.30;;;1.80;;
13461;SDS011;6803;45.264;5.468;2023-04-07T01:41:50;5.53;;;1.60;;
13461;SDS011;6803;45.264;5.468;2023-04-07T01:44:22;2.53;;;1.57;;
13461;SDS011;6803;45.264;5.468;2023-04-07T01:46:55;3.97;;;2.10;;
13461;SDS011;6803;45.264;5.468;2023-04-07T01:49:27;2.07;;;1.80;;
13461;SDS011;6803;45.264;5.468;2023-04-07T01:52:00;2.20;;;1.70;;
13461;SDS011;6803;45.264;5.468;2023-04-07T01:54:31;4.20;;;1.70;;
13461;SDS011;6803;45.264;5.468;2023-04-07T01:57:02;2.33;;;1.70;;
13461;SDS011;6803;45.264;5.468;2023-04-07T01:59:34;3.70;;;1.67;;
13461;SDS011;6803;45.264;5.468;2023-04-07T02:02:05;7.80;;;1.93;;
13461;SDS011;6803;45.264;5.468;2023-04-07T02:04:38;2.90;;;1.67;;
13461;SDS011;6803;45.264;5.468;2023-04-07T02:07:12;3.63;;;1.70;;
13461;SDS011;6803;45.264;5.468;2023-04-07T02:09:44;2.30;;;1.70;;
13461;SDS011;6803;45.264;5.468;2023-04-07T02:12:18;2.27;;;1.73;;
13461;SDS011;6803;45.264;5.468;2023-04-07T02:14:50;4.60;;;1.63;;
13461;SDS011;6803;45.264;5.468;2023-04-07T02:17:21;2.03;;;1.60;;
13461;SDS011;6803;45.264;5.468;2023-04-07T02:19:54;1.90;;;1.50;;
13461;SDS011;6803;45.264;5.468;2023-04-07T02:22:27;2.10;;;1.60;;
13461;SDS011;6803;45.264;5.468;2023-04-07T02:24:59;1.73;;;1.43;;
13461;SDS011;6803;45.264;5.468;2023-04-07T02:27:30;5.63;;;1.47;;
13461;SDS011;6803;45.264;5.468;2023-04-07T02:30:01;5.47;;;1.77;;
13461;SDS011;6803;45.264;5.468;2023-04-07T02:32:33;2.23;;;1.70;;
13461;SDS011;6803;45.264;5.468;2023-04-07T02:35:05;2.63;;;1.40;;
13461;SDS011;6803;45.264;5.468;2023-04-07T02:37:37;2.47;;;1.60;;
13461;SDS011;6803;45.264;5.468;2023-04-07T02:40:09;1.40;;;1.30;;
13461;SDS011;6803;45.264;5.468;2023-04-07T02:42:40;2.30;;;1.40;;
13461;SDS011;6803;45.264;5.468;2023-04-07T02:45:11;1.60;;;1.40;;
13461;SDS011;6803;45.264;5.468;2023-04-07T02:47:43;3.20;;;1.60;;
13461;SDS011;6803;45.264;5.468;2023-04-07T02:50:14;2.83;;;1.87;;
13461;SDS011;6803;45.264;5.468;2023-04-07T02:52:45;1.70;;;1.33;;
13461;SDS011;6803;45.264;5.468;2023-04-07T02:55:16;2.37;;;1.43;;
13461;SDS011;6803;45.264;5.468;2023-04-07T02:57:47;2.77;;;1.50;;
13461;SDS011;6803;45.264;5.468;2023-04-07T03:00:19;2.83;;;1.77;;
13461;SDS011;6803;45.264;5.468;2023-04-07T03:02:50;2.57;;;1.60;;
13461;SDS011;6803;45.264;5.468;2023-04-07T03:05:22;5.97;;;1.77;;
13461;SDS011;6803;45.264;5.468;2023-04-07T03:07:53;4.80;;;2.10;;
13461;SDS011;6803;45.264;5.468;2023-04-07T03:10:24;4.27;;;1.47;;
13461;SDS011;6803;45.264;5.468;2023-04-07T03:12:55;3.70;;;2.10;;
13461;SDS011;6803;45.264;5.468;2023-04-07T03:15:27;4.57;;;2.00;;
13461;SDS011;6803;45.264;5.468;2023-04-07T03:17:58;5.67;;;2.20;;
13461;SDS011;6803;45.264;5.468;2023-04-07T03:20:29;5.50;;;2.10;;
13461;SDS011;6803;45.264;5.468;2023-04-07T03:23:00;4.13;;;2.10;;
13461;SDS011;6803;45.264;5.468;2023-04-07T03:25:32;1.67;;;1.57;;
13461;SDS011;6803;45.264;5.468;2023-04-07T03:28:03;2.23;;;1.90;;
13461;SDS011;6803;45.264;5.468;2023-04-07T03:30:35;4.47;;;1.63;;
13461;SDS011;6803;45.264;5.468;2023-04-07T03:33:06;3.10;;;1.70;;
13461;SDS011;6803;45.264;5.468;2023-04-07T03:35:38;3.03;;;1.70;;
13461;SDS011;6803;45.264;5.468;2023-04-07T03:38:09;4.00;;;1.70;;
13461;SDS011;6803;45.264;5.468;2023-04-07T03:40:39;2.90;;;1.83;;
13461;SDS011;6803;45.264;5.468;2023-04-07T03:43:10;2.60;;;1.70;;
13461;SDS011;6803;45.264;5.468;2023-04-07T03:45:42;4.13;;;1.87;;
13461;SDS011;6803;45.264;5.468;2023-04-07T03:48:13;2.73;;;1.60;;
13461;SDS011;6803;45.264;5.468;2023-04-07T03:50:44;4.23;;;1.60;;
13461;SDS011;6803;45.264;5.468;2023-04-07T03:53:15;3.53;;;1.97;;
13461;SDS011;6803;45.264;5.468;2023-04-07T03:55:46;3.40;;;2.30;;
13461;SDS011;6803;45.264;5.468;2023-04-07T03:58:18;4.07;;;2.50;;
13461;SDS011;6803;45.264;5.468;2023-04-07T04:00:49;2.50;;;2.10;;
13461;SDS011;6803;45.264;5.468;2023-04-07T04:03:20;3.93;;;1.90;;
13461;SDS011;6803;45.264;5.468;2023-04-07T04:05:51;6.23;;;2.30;;
13461;SDS011;6803;45.264;5.468;2023-04-07T04:08:23;4.57;;;1.80;;
13461;SDS011;6803;45.264;5.468;2023-04-07T04:10:54;4.17;;;1.90;;
13461;SDS011;6803;45.264;5.468;2023-04-07T04:13:25;3.80;;;2.03;;
13461;SDS011;6803;45.264;5.468;2023-04-07T04:15:56;3.00;;;2.10;;
13461;SDS011;6803;45.264;5.468;2023-04-07T04:18:27;5.07;;;2.00;;
13461;SDS011;6803;45.264;5.468;2023-04-07T04:20:58;2.87;;;2.20;;
13461;SDS011;6803;45.264;5.468;2023-04-07T04:23:29;2.70;;;1.90;;
13461;SDS011;6803;45.264;5.468;2023-04-07T04:26:00;4.37;;;2.30;;
13461;SDS011;6803;45.264;5.468;2023-04-07T04:28:32;1.83;;;1.60;;
13461;SDS011;6803;45.264;5.468;2023-04-07T04:31:05;7.50;;;2.00;;
13461;SDS011;6803;45.264;5.468;2023-04-07T04:33:36;1.60;;;1.50;;
13461;SDS011;6803;45.264;5.468;2023-04-07T04:36:07;4.00;;;2.13;;
13461;SDS011;6803;45.264;5.468;2023-04-07T04:38:38;2.23;;;1.90;;
13461;SDS011;6803;45.264;5.468;2023-04-07T04:41:09;2.23;;;2.00;;
13461;SDS011;6803;45.264;5.468;2023-04-07T04:43:40;5.50;;;2.40;;
13461;SDS011;6803;45.264;5.468;2023-04-07T04:46:12;5.73;;;2.37;;
13461;SDS011;6803;45.264;5.468;2023-04-07T04:48:43;3.43;;;2.10;;
13461;SDS011;6803;45.264;5.468;2023-04-07T04:51:14;8.43;;;2.07;;
13461;SDS011;6803;45.264;5.468;2023-04-07T04:53:45;6.10;;;2.00;;
13461;SDS011;6803;45.264;5.468;2023-04-07T04:56:16;2.70;;;2.10;;
13461;SDS011;6803;45.264;5.468;2023-04-07T05:01:37;4.53;;;2.27;;
13461;SDS011;6803;45.264;5.468;2023-04-07T05:04:08;4.80;;;1.73;;
13461;SDS011;6803;45.264;5.468;2023-04-07T05:06:40;2.93;;;2.00;;
13461;SDS011;6803;45.264;5.468;2023-04-07T05:09:11;3.10;;;1.90;;
13461;SDS011;6803;45.264;5.468;2023-04-07T05:11:43;4.13;;;1.90;;
13461;SDS011;6803;45.264;5.468;2023-04-07T05:14:14;4.83;;;2.20;;
13461;SDS011;6803;45.264;5.468;2023-04-07T05:16:44;6.73;;;2.83;;
13461;SDS011;6803;45.264;5.468;2023-04-07T05:19:15;5.10;;;2.80;;
13461;SDS011;6803;45.264;5.468;2023-04-07T05:21:46;2.90;;;2.17;;
13461;SDS011;6803;45.264;5.468;2023-04-07T05:24:17;4.90;;;2.57;;
13461;SDS011;6803;45.264;5.468;2023-04-07T05:26:48;3.63;;;2.03;;
13461;SDS011;6803;45.264;5.468;2023-04-07T05:29:18;5.97;;;2.60;;
13461;SDS011;6803;45.264;5.468;2023-04-07T05:34:45;3.10;;;2.27;;
13461;SDS011;6803;45.264;5.468;2023-04-07T05:37:16;4.73;;;2.27;;
13461;SDS011;6803;45.264;5.468;2023-04-07T05:39:47;9.00;;;2.30;;
13461;SDS011;6803;45.264;5.468;2023-04-07T05:42:18;6.23;;;2.50;;
13461;SDS011;6803;45.264;5.468;2023-04-07T05:44:48;6.30;;;2.60;;
13461;SDS011;6803;45.264;5.468;2023-04-07T05:47:19;2.47;;;1.77;;
13461;SDS011;6803;45.264;5.468;2023-04-07T05:49:50;4.93;;;1.93;;
13461;SDS011;6803;45.264;5.468;2023-04-07T05:52:21;7.53;;;2.50;;
13461;SDS011;6803;45.264;5.468;2023-04-07T05:54:52;3.10;;;2.17;;
13461;SDS011;6803;45.264;5.468;2023-04-07T05:57:25;3.53;;;2.63;;
13461;SDS011;6803;45.264;5.468;2023-04-07T05:59:56;3.23;;;2.33;;
13461;SDS011;6803;45.264;5.468;2023-04-07T06:02:27;4.93;;;2.27;;
13461;SDS011;6803;45.264;5.468;2023-04-07T06:04:58;3.23;;;2.50;;
13461;SDS011;6803;45.264;5.468;2023-04-07T06:07:29;5.10;;;2.40;;
13461;SDS011;6803;45.264;5.468;2023-04-07T06:10:00;6.10;;;2.27;;
13461;SDS011;6803;45.264;5.468;2023-04-07T06:12:31;4.83;;;2.30;;
13461;SDS011;6803;45.264;5.468;2023-04-07T06:15:03;6.60;;;2.60;;
13461;SDS011;6803;45.264;5.468;2023-04-07T06:17:35;7.10;;;2.20;;
13461;SDS011;6803;45.264;5.468;2023-04-07T06:20:07;3.63;;;2.10;;
13461;SDS011;6803;45.264;5.468;2023-04-07T06:22:39;6.33;;;2.03;;
13461;SDS011;6803;45.264;5.468;2023-04-07T06:25:10;3.10;;;2.40;;
13461;SDS011;6803;45.264;5.468;2023-04-07T06:27:40;2.43;;;2.03;;
13461;SDS011;6803;45.264;5.468;2023-04-07T06:30:12;5.00;;;2.20;;
13461;SDS011;6803;45.264;5.468;2023-04-07T06:32:43;4.00;;;2.03;;
13461;SDS011;6803;45.264;5.468;2023-04-07T06:35:15;4.00;;;2.47;;
13461;SDS011;6803;45.264;5.468;2023-04-07T06:37:46;2.73;;;2.13;;
13461;SDS011;6803;45.264;5.468;2023-04-07T06:40:17;3.63;;;2.10;;
13461;SDS011;6803;45.264;5.468;2023-04-07T06:42:47;4.10;;;1.90;;
13461;SDS011;6803;45.264;5.468;2023-04-07T06:45:21;3.27;;;2.40;;
13461;SDS011;6803;45.264;5.468;2023-04-07T06:47:52;6.17;;;2.10;;
13461;SDS011;6803;45.264;5.468;2023-04-07T06:50:23;3.77;;;2.40;;
13461;SDS011;6803;45.264;5.468;2023-04-07T06:52:54;2.47;;;1.90;;
13461;SDS011;6803;45.264;5.468;2023-04-07T06:55:24;4.03;;;2.50;;
13461;SDS011;6803;45.264;5.468;2023-04-07T06:57:55;6.37;;;2.40;;
13461;SDS011;6803;45.264;5.468;2023-04-07T07:00:27;7.77;;;2.83;;
13461;SDS011;6803;45.264;5.468;2023-04-07T07:02:58;6.20;;;2.50;;
13461;SDS011;6803;45.264;5.468;2023-04-07T07:05:29;4.30;;;2.00;;
13461;SDS011;6803;45.264;5.468;2023-04-07T07:08:00;4.03;;;2.27;;
13461;SDS011;6803;45.264;5.468;2023-04-07T07:10:32;5.30;;;2.40;;
13461;SDS011;6803;45.264;5.468;2023-04-07T07:13:05;3.23;;;2.30;;
13461;SDS011;6803;45.264;5.468;2023-04-07T07:15:36;3.43;;;2.40;;
13461;SDS011;6803;45.264;5.468;2023-04-07T07:18:07;3.37;;;2.20;;
13461;SDS011;6803;45.264;5.468;2023-04-07T07:23:27;3.07;;;2.30;;
13461;SDS011;6803;45.264;5.468;2023-04-07T07:26:05;5.73;;;2.60;;
13461;SDS011;6803;45.264;5.468;2023-04-07T07:28:36;5.17;;;2.60;;
13461;SDS011;6803;45.264;5.468;2023-04-07T07:31:10;7.13;;;2.73;;
13461;SDS011;6803;45.264;5.468;2023-04-07T07:33:42;4.43;;;2.37;;
13461;SDS011;6803;45.264;5.468;2023-04-07T07:36:15;3.00;;;2.50;;
13461;SDS011;6803;45.264;5.468;2023-04-07T07:38:48;4.03;;;2.30;;
13461;SDS011;6803;45.264;5.468;2023-04-07T07:41:19;4.53;;;1.93;;
13461;SDS011;6803;45.264;5.468;2023-04-07T07:43:50;4.20;;;2.30;;
13461;SDS011;6803;45.264;5.468;2023-04-07T07:46:20;2.77;;;2.20;;
13461;SDS011;6803;45.264;5.468;2023-04-07T07:48:53;15.37;;;3.50;;
13461;SDS011;6803;45.264;5.468;2023-04-07T07:51:24;14.83;;;4.03;;
13461;SDS011;6803;45.264;5.468;2023-04-07T07:53:55;20.00;;;4.63;;
13461;SDS011;6803;45.264;5.468;2023-04-07T07:56:27;6.87;;;3.30;;
13461;SDS011;6803;45.264;5.468;2023-04-07T07:58:58;11.40;;;3.77;;
13461;SDS011;6803;45.264;5.468;2023-04-07T08:01:30;8.80;;;3.27;;
13461;SDS011;6803;45.264;5.468;2023-04-07T08:04:02;2.67;;;2.23;;
13461;SDS011;6803;45.264;5.468;2023-04-07T08:06:33;4.97;;;2.20;;
13461;SDS011;6803;45.264;5.468;2023-04-07T08:09:05;2.73;;;2.10;;
13461;SDS011;6803;45.264;5.468;2023-04-07T08:11:36;3.20;;;2.13;;
13461;SDS011;6803;45.264;5.468;2023-04-07T08:14:07;2.90;;;2.60;;
13461;SDS011;6803;45.264;5.468;2023-04-07T08:16:38;2.43;;;2.13;;
13461;SDS011;6803;45.264;5.468;2023-04-07T08:19:10;4.47;;;2.70;;
13461;SDS011;6803;45.264;5.468;2023-04-07T08:21:41;9.20;;;3.17;;
13461;SDS011;6803;45.264;5.468;2023-04-07T08:24:13;8.17;;;3.00;;
13461;SDS011;6803;45.264;5.468;2023-04-07T08:26:44;8.23;;;3.73;;
13461;SDS011;6803;45.264;5.468;2023-04-07T08:29:15;6.53;;;3.30;;
13461;SDS011;6803;45.264;5.468;2023-04-07T08:31:47;5.50;;;3.53;;
13461;SDS011;6803;45.264;5.468;2023-04-07T08:34:18;8.10;;;3.00;;
13461;SDS011;6803;45.264;5.468;2023-04-07T08:36:48;9.10;;;3.33;;
13461;SDS011;6803;45.264;5.468;2023-04-07T08:39:19;5.37;;;3.30;;
13461;SDS011;6803;45.264;5.468;2023-04-07T08:41:52;9.10;;;3.63;;
13461;SDS011;6803;45.264;5.468;2023-04-07T08:44:24;5.63;;;3.40;;
13461;SDS011;6803;45.264;5.468;2023-04-07T08:46:58;5.23;;;4.00;;
13461;SDS011;6803;45.264;5.468;2023-04-07T08:49:32;6.50;;;3.93;;
13461;SDS011;6803;45.264;5.468;2023-04-07T08:52:06;8.70;;;3.70;;
13461;SDS011;6803;45.264;5.468;2023-04-07T08:54:39;8.00;;;3.23;;
13461;SDS011;6803;45.264;5.468;2023-04-07T08:57:10;8.47;;;3.60;;
13461;SDS011;6803;45.264;5.468;2023-04-07T08:59:42;7.30;;;3.60;;
13461;SDS011;6803;45.264;5.468;2023-04-07T09:02:14;3.17;;;2.87;;
13461;SDS011;6803;45.264;5.468;2023-04-07T09:04:46;6.40;;;2.93;;
13461;SDS011;6803;45.264;5.468;2023-04-07T09:07:17;4.57;;;3.63;;
13461;SDS011;6803;45.264;5.468;2023-04-07T09:09:47;6.30;;;2.90;;
13461;SDS011;6803;45.264;5.468;2023-04-07T09:12:19;7.73;;;3.20;;
13461;SDS011;6803;45.264;5.468;2023-04-07T09:14:50;4.30;;;3.00;;
13461;SDS011;6803;45.264;5.468;2023-04-07T09:17:23;3.70;;;2.97;;
13461;SDS011;6803;45.264;5.468;2023-04-07T09:19:55;5.60;;;3.10;;
13461;SDS011;6803;45.264;5.468;2023-04-07T09:22:34;5.70;;;3.47;;
13461;SDS011;6803;45.264;5.468;2023-04-07T09:25:09;3.90;;;3.07;;
13461;SDS011;6803;45.264;5.468;2023-04-07T09:27:57;5.83;;;3.13;;
13461;SDS011;6803;45.264;5.468;2023-04-07T09:30:30;3.50;;;2.97;;
13461;SDS011;6803;45.264;5.468;2023-04-07T09:33:01;3.83;;;2.87;;
13461;SDS011;6803;45.264;5.468;2023-04-07T09:35:32;4.27;;;2.80;;
13461;SDS011;6803;45.264;5.468;2023-04-07T09:38:08;3.70;;;3.00;;
13461;SDS011;6803;45.264;5.468;2023-04-07T09:40:39;4.03;;;2.80;;
13461;SDS011;6803;45.264;5.468;2023-04-07T09:43:14;3.13;;;2.70;;
13461;SDS011;6803;45.264;5.468;2023-04-07T09:45:46;8.50;;;2.80;;
13461;SDS011;6803;45.264;5.468;2023-04-07T09:48:18;3.10;;;2.63;;
13461;SDS011;6803;45.264;5.468;2023-04-07T09:50:49;4.10;;;2.70;;
13461;SDS011;6803;45.264;5.468;2023-04-07T09:53:22;4.00;;;2.70;;
13461;SDS011;6803;45.264;5.468;2023-04-07T09:55:57;3.30;;;3.00;;
13461;SDS011;6803;45.264;5.468;2023-04-07T10:01:19;7.60;;;3.23;;
13461;SDS011;6803;45.264;5.468;2023-04-07T10:03:50;4.60;;;3.57;;
13461;SDS011;6803;45.264;5.468;2023-04-07T10:06:23;6.23;;;3.07;;
13461;SDS011;6803;45.264;5.468;2023-04-07T10:08:55;4.90;;;3.23;;
13461;SDS011;6803;45.264;5.468;2023-04-07T10:11:27;6.57;;;3.17;;
13461;SDS011;6803;45.264;5.468;2023-04-07T10:13:59;7.13;;;3.10;;
13461;SDS011;6803;45.264;5.468;2023-04-07T10:16:30;5.17;;;3.00;;
13461;SDS011;6803;45.264;5.468;2023-04-07T10:19:01;7.40;;;3.73;;
13461;SDS011;6803;45.264;5.468;2023-04-07T10:21:34;5.00;;;2.87;;
13461;SDS011;6803;45.264;5.468;2023-04-07T10:24:11;4.47;;;3.27;;
13461;SDS011;6803;45.264;5.468;2023-04-07T10:26:46;5.13;;;3.20;;
13461;SDS011;6803;45.264;5.468;2023-04-07T10:29:20;4.87;;;3.17;;
13461;SDS011;6803;45.264;5.468;2023-04-07T10:31:53;3.77;;;3.10;;
13461;SDS011;6803;45.264;5.468;2023-04-07T10:37:28;3.63;;;3.03;;
13461;SDS011;6803;45.264;5.468;2023-04-07T10:43:00;4.80;;;3.10;;
13461;SDS011;6803;45.264;5.468;2023-04-07T10:45:54;5.50;;;2.73;;
13461;SDS011;6803;45.264;5.468;2023-04-07T10:48:27;5.30;;;2.93;;
13461;SDS011;6803;45.264;5.468;2023-04-07T10:54:15;4.73;;;2.63;;
13461;SDS011;6803;45.264;5.468;2023-04-07T10:59:42;4.10;;;2.10;;
13461;SDS011;6803;45.264;5.468;2023-04-07T11:02:33;7.73;;;2.97;;
13461;SDS011;6803;45.264;5.468;2023-04-07T11:05:06;3.40;;;2.30;;
13461;SDS011;6803;45.264;5.468;2023-04-07T11:07:51;5.53;;;2.53;;
13461;SDS011;6803;45.264;5.468;2023-04-07T11:10:24;4.73;;;2.53;;
13461;SDS011;6803;45.264;5.468;2023-04-07T11:12:59;5.20;;;2.67;;
13461;SDS011;6803;45.264;5.468;2023-04-07T11:15:31;4.47;;;2.90;;
13461;SDS011;6803;45.264;5.468;2023-04-07T11:18:09;3.80;;;2.77;;
13461;SDS011;6803;45.264;5.468;2023-04-07T11:20:49;4.17;;;2.47;;
13461;SDS011;6803;45.264;5.468;2023-04-07T11:23:21;5.03;;;2.70;;
13461;SDS011;6803;45.264;5.468;2023-04-07T11:25:58;3.00;;;2.43;;
13461;SDS011;6803;45.264;5.468;2023-04-07T11:28:29;4.03;;;2.80;;
13461;SDS011;6803;45.264;5.468;2023-04-07T11:31:00;4.50;;;3.00;;
13461;SDS011;6803;45.264;5.468;2023-04-07T11:33:32;4.27;;;2.60;;
13461;SDS011;6803;45.264;5.468;2023-04-07T11:36:05;5.30;;;2.63;;
13461;SDS011;6803;45.264;5.468;2023-04-07T11:38:36;5.77;;;3.10;;
13461;SDS011;6803;45.264;5.468;2023-04-07T11:41:11;4.97;;;2.77;;
13461;SDS011;6803;45.264;5.468;2023-04-07T11:43:43;4.50;;;2.60;;
13461;SDS011;6803;45.264;5.468;2023-04-07T11:46:15;3.47;;;2.53;;
13461;SDS011;6803;45.264;5.468;2023-04-07T11:48:46;4.20;;;2.87;;
13461;SDS011;6803;45.264;5.468;2023-04-07T11:51:20;3.77;;;2.50;;
13461;SDS011;6803;45.264;5.468;2023-04-07T11:53:54;3.27;;;2.50;;
13461;SDS011;6803;45.264;5.468;2023-04-07T11:56:25;3.70;;;2.50;;
13461;SDS011;6803;45.264;5.468;2023-04-07T11:58:57;3.10;;;2.47;;
13461;SDS011;6803;45.264;5.468;2023-04-07T12:01:38;4.23;;;2.63;;
13461;SDS011;6803;45.264;5.468;2023-04-07T12:04:11;6.17;;;3.00;;
13461;SDS011;6803;45.264;5.468;2023-04-07T12:06:43;7.20;;;2.80;;
13461;SDS011;6803;45.264;5.468;2023-04-07T12:09:28;4.07;;;2.67;;
13461;SDS011;6803;45.264;5.468;2023-04-07T12:12:01;3.23;;;2.63;;
13461;SDS011;6803;45.264;5.468;2023-04-07T12:14:34;4.07;;;2.63;;
13461;SDS011;6803;45.264;5.468;2023-04-07T12:17:05;2.60;;;2.20;;
13461;SDS011;6803;45.264;5.468;2023-04-07T12:19:37;3.53;;;2.40;;
13461;SDS011;6803;45.264;5.468;2023-04-07T12:22:09;3.63;;;2.40;;
13461;SDS011;6803;45.264;5.468;2023-04-07T12:24:39;3.40;;;2.30;;
13461;SDS011;6803;45.264;5.468;2023-04-07T12:27:10;3.70;;;2.40;;
13461;SDS011;6803;45.264;5.468;2023-04-07T12:29:42;2.93;;;2.00;;
13461;SDS011;6803;45.264;5.468;2023-04-07T12:32:13;3.17;;;2.20;;
13461;SDS011;6803;45.264;5.468;2023-04-07T12:34:43;3.33;;;2.37;;
13461;SDS011;6803;45.264;5.468;2023-04-07T12:37:14;4.60;;;2.20;;
13461;SDS011;6803;45.264;5.468;2023-04-07T12:39:45;4.10;;;2.07;;
13461;SDS011;6803;45.264;5.468;2023-04-07T12:42:16;3.00;;;2.20;;
13461;SDS011;6803;45.264;5.468;2023-04-07T12:44:47;4.43;;;2.20;;
13461;SDS011;6803;45.264;5.468;2023-04-07T12:47:18;3.90;;;2.17;;
13461;SDS011;6803;45.264;5.468;2023-04-07T12:49:50;4.47;;;2.70;;
13461;SDS011;6803;45.264;5.468;2023-04-07T12:52:20;2.60;;;2.13;;
13461;SDS011;6803;45.264;5.468;2023-04-07T12:54:51;2.53;;;2.07;;
13461;SDS011;6803;45.264;5.468;2023-04-07T12:57:22;2.73;;;2.33;;
13461;SDS011;6803;45.264;5.468;2023-04-07T12:59:53;3.13;;;2.27;;
13461;SDS011;6803;45.264;5.468;2023-04-07T13:02:23;2.83;;;2.30;;
13461;SDS011;6803;45.264;5.468;2023-04-07T13:04:55;4.97;;;2.50;;
13461;SDS011;6803;45.264;5.468;2023-04-07T13:07:25;5.07;;;2.43;;
13461;SDS011;6803;45.264;5.468;2023-04-07T13:09:56;4.43;;;2.50;;
13461;SDS011;6803;45.264;5.468;2023-04-07T13:12:27;2.93;;;1.60;;
13461;SDS011;6803;45.264;5.468;2023-04-07T13:14:58;2.50;;;1.77;;
13461;SDS011;6803;45.264;5.468;2023-04-07T13:17:29;2.87;;;1.63;;
13461;SDS011;6803;45.264;5.468;2023-04-07T13:20:00;2.23;;;1.73;;
13461;SDS011;6803;45.264;5.468;2023-04-07T13:22:31;2.53;;;1.47;;
13461;SDS011;6803;45.264;5.468;2023-04-07T13:25:06;2.70;;;1.63;;
13461;SDS011;6803;45.264;5.468;2023-04-07T13:27:37;5.10;;;2.60;;
13461;SDS011;6803;45.264;5.468;2023-04-07T13:30:10;3.27;;;1.50;;
13461;SDS011;6803;45.264;5.468;2023-04-07T13:32:42;1.93;;;1.30;;
13461;SDS011;6803;45.264;5.468;2023-04-07T13:35:15;4.53;;;1.60;;
13461;SDS011;6803;45.264;5.468;2023-04-07T13:37:46;2.03;;;1.43;;
13461;SDS011;6803;45.264;5.468;2023-04-07T13:40:17;3.57;;;1.53;;
13461;SDS011;6803;45.264;5.468;2023-04-07T13:42:48;4.00;;;1.53;;
13461;SDS011;6803;45.264;5.468;2023-04-07T13:45:19;1.30;;;1.20;;
13461;SDS011;6803;45.264;5.468;2023-04-07T13:47:49;2.60;;;1.37;;
13461;SDS011;6803;45.264;5.468;2023-04-07T13:50:22;1.67;;;1.27;;
13461;SDS011;6803;45.264;5.468;2023-04-07T13:52:54;4.27;;;1.50;;
13461;SDS011;6803;45.264;5.468;2023-04-07T13:55:25;4.83;;;1.20;;
13461;SDS011;6803;45.264;5.468;2023-04-07T13:57:55;2.40;;;1.43;;
13461;SDS011;6803;45.264;5.468;2023-04-07T14:00:26;4.00;;;1.43;;
13461;SDS011;6803;45.264;5.468;2023-04-07T14:02:58;2.57;;;1.40;;
13461;SDS011;6803;45.264;5.468;2023-04-07T14:05:29;2.90;;;0.90;;
13461;SDS011;6803;45.264;5.468;2023-04-07T14:08:00;1.47;;;0.70;;
13461;SDS011;6803;45.264;5.468;2023-04-07T14:10:30;1.70;;;1.00;;
13461;SDS011;6803;45.264;5.468;2023-04-07T14:13:03;1.37;;;1.00;;
13461;SDS011;6803;45.264;5.468;2023-04-07T14:15:33;1.03;;;0.70;;
13461;SDS011;6803;45.264;5.468;2023-04-07T14:18:04;1.10;;;1.00;;
13461;SDS011;6803;45.264;5.468;2023-04-07T14:20:36;0.80;;;0.80;;
13461;SDS011;6803;45.264;5.468;2023-04-07T14:23:07;1.80;;;0.90;;
13461;SDS011;6803;45.264;5.468;2023-04-07T14:25:38;2.70;;;1.17;;
13461;SDS011;6803;45.264;5.468;2023-04-07T14:28:09;2.20;;;1.17;;
13461;SDS011;6803;45.264;5.468;2023-04-07T14:30:39;1.87;;;0.83;;
13461;SDS011;6803;45.264;5.468;2023-04-07T14:33:10;2.47;;;1.00;;
13461;SDS011;6803;45.264;5.468;2023-04-07T14:35:42;1.87;;;1.07;;
13461;SDS011;6803;45.264;5.468;2023-04-07T14:38:13;1.80;;;1.13;;
13461;SDS011;6803;45.264;5.468;2023-04-07T14:40:44;1.47;;;0.90;;
13461;SDS011;6803;45.264;5.468;2023-04-07T14:43:15;1.27;;;0.83;;
13461;SDS011;6803;45.264;5.468;2023-04-07T14:45:45;1.67;;;0.70;;
13461;SDS011;6803;45.264;5.468;2023-04-07T14:48:17;1.37;;;0.93;;
13461;SDS011;6803;45.264;5.468;2023-04-07T14:50:48;1.23;;;0.70;;
13461;SDS011;6803;45.264;5.468;2023-04-07T14:53:21;1.93;;;0.83;;
13461;SDS011;6803;45.264;5.468;2023-04-07T14:55:51;2.93;;;0.87;;
13461;SDS011;6803;45.264;5.468;2023-04-07T14:58:22;1.40;;;0.90;;
13461;SDS011;6803;45.264;5.468;2023-04-07T15:00:53;4.50;;;1.20;;
13461;SDS011;6803;45.264;5.468;2023-04-07T15:03:24;1.63;;;0.90;;
13461;SDS011;6803;45.264;5.468;2023-04-07T15:05:55;1.50;;;1.00;;
13461;SDS011;6803;45.264;5.468;2023-04-07T15:08:27;1.33;;;0.80;;
13461;SDS011;6803;45.264;5.468;2023-04-07T15:10:57;2.30;;;1.00;;
13461;SDS011;6803;45.264;5.468;2023-04-07T15:13:28;2.07;;;1.10;;
13461;SDS011;6803;45.264;5.468;2023-04-07T15:16:05;2.13;;;0.90;;
13461;SDS011;6803;45.264;5.468;2023-04-07T15:18:37;1.63;;;1.03;;
13461;SDS011;6803;45.264;5.468;2023-04-07T15:21:10;2.90;;;1.00;;
13461;SDS011;6803;45.264;5.468;2023-04-07T15:23:41;1.13;;;0.80;;
13461;SDS011;6803;45.264;5.468;2023-04-07T15:26:12;1.17;;;0.90;;
13461;SDS011;6803;45.264;5.468;2023-04-07T15:28:43;1.10;;;0.80;;
13461;SDS011;6803;45.264;5.468;2023-04-07T15:31:13;1.20;;;1.00;;
13461;SDS011;6803;45.264;5.468;2023-04-07T15:33:44;1.50;;;1.00;;
13461;SDS011;6803;45.264;5.468;2023-04-07T15:36:15;2.83;;;1.10;;
13461;SDS011;6803;45.264;5.468;2023-04-07T15:38:46;1.03;;;0.73;;
13461;SDS011;6803;45.264;5.468;2023-04-07T15:41:16;0.63;;;0.63;;
13461;SDS011;6803;45.264;5.468;2023-04-07T15:43:47;1.67;;;0.90;;
13461;SDS011;6803;45.264;5.468;2023-04-07T15:46:18;1.93;;;1.10;;
13461;SDS011;6803;45.264;5.468;2023-04-07T15:48:48;0.77;;;0.77;;
13461;SDS011;6803;45.264;5.468;2023-04-07T15:51:19;1.20;;;0.97;;
13461;SDS011;6803;45.264;5.468;2023-04-07T15:53:50;1.43;;;0.80;;
13461;SDS011;6803;45.264;5.468;2023-04-07T15:56:21;0.50;;;0.50;;